Time;durP1;ratioP1;P1;durP2;ratioP2;P2;SDS_P1;SDS_P2;PMS_P1;PMS_P2;Temp;Humidity;BMP_temperature;BMP_pressure;BME280_temperature;BME280_humidity;BME280_pressure;Samples;Min_cycle;Max_cycle;Signal;HPM_P1;HPM_P2
2022/11/27 00:01:14;;;;;;;33.42;21.83;;;4.20;99.90;;;;;;5071725;28;20031;-80
2022/11/27 00:03:40;;;;;;;35.47;22.35;;;4.30;99.90;;;;;;5072153;28;20059;-80
2022/11/27 00:06:06;;;;;;;30.33;21.27;;;4.00;99.90;;;;;;5070464;28;20418;-80
2022/11/27 00:08:32;;;;;;;31.67;21.42;;;3.90;99.90;;;;;;5072086;28;20478;-80
2022/11/27 00:11:14;;;;;;;32.58;21.70;;;3.80;99.90;;;;;;5071240;28;20021;-78
2022/11/27 00:13:40;;;;;;;32.90;21.25;;;3.90;99.90;;;;;;5077202;28;20016;-79
2022/11/27 00:16:06;;;;;;;33.70;21.88;;;3.90;99.90;;;;;;5092120;28;20051;-81
2022/11/27 00:18:33;;;;;;;30.13;20.70;;;4.00;99.90;;;;;;5083888;28;20043;-81
2022/11/27 00:21:03;;;;;;;31.15;21.63;;;4.00;99.90;;;;;;5079634;28;20021;-80
2022/11/27 00:23:29;;;;;;;30.55;19.77;;;3.80;99.90;;;;;;5079284;28;20034;-80
2022/11/27 00:25:54;;;;;;;30.40;21.20;;;3.80;99.90;;;;;;5078887;28;20562;-81
2022/11/27 00:28:20;;;;;;;27.20;19.63;;;3.80;99.90;;;;;;5090306;28;20431;-81
2022/11/27 00:30:46;;;;;;;29.85;20.70;;;3.90;99.90;;;;;;5091977;28;20069;-81
2022/11/27 00:33:12;;;;;;;29.27;20.02;;;3.90;99.90;;;;;;5091889;28;20093;-80
2022/11/27 00:35:38;;;;;;;28.38;19.73;;;3.90;99.90;;;;;;5091612;28;20485;-81
2022/11/27 00:38:04;;;;;;;29.15;19.00;;;3.90;99.90;;;;;;5091711;28;20023;-81
2022/11/27 00:40:30;;;;;;;26.83;19.27;;;3.90;99.90;;;;;;5091340;28;20447;-81
2022/11/27 00:42:56;;;;;;;29.70;20.40;;;3.80;99.90;;;;;;5091700;28;20028;-80
2022/11/27 00:45:22;;;;;;;26.48;18.95;;;3.80;99.90;;;;;;5092165;28;20031;-80
2022/11/27 00:47:47;;;;;;;27.10;19.52;;;3.50;99.90;;;;;;5091938;28;20021;-80
2022/11/27 00:50:13;;;;;;;29.50;19.67;;;3.30;99.90;;;;;;5078567;28;20035;-80
2022/11/27 00:52:39;;;;;;;27.10;18.27;;;3.40;99.90;;;;;;5074860;28;20024;-81
2022/11/27 00:55:05;;;;;;;26.77;18.60;;;3.40;99.90;;;;;;5082573;28;20024;-80
2022/11/27 00:57:31;;;;;;;26.00;18.48;;;3.60;99.90;;;;;;5071553;28;20078;-80
2022/11/27 00:59:57;;;;;;;26.35;18.90;;;3.50;99.90;;;;;;5071000;28;20457;-81
2022/11/27 01:02:22;;;;;;;25.75;18.67;;;3.40;99.90;;;;;;5071358;28;20032;-81
2022/11/27 01:04:48;;;;;;;24.98;17.33;;;3.50;99.90;;;;;;5069610;28;20059;-81
2022/11/27 01:07:14;;;;;;;23.55;17.80;;;3.50;99.90;;;;;;5070945;28;20070;-81
2022/11/27 01:09:40;;;;;;;25.65;17.42;;;3.50;99.90;;;;;;5069563;28;20052;-80
2022/11/27 01:12:06;;;;;;;24.73;17.45;;;3.30;99.90;;;;;;5070779;28;20052;-80
2022/11/27 01:14:32;;;;;;;22.88;17.30;;;3.30;99.90;;;;;;5071180;28;20109;-80
2022/11/27 01:16:58;;;;;;;23.48;17.75;;;3.30;99.90;;;;;;5075786;28;20024;-80
2022/11/27 01:19:24;;;;;;;25.08;17.63;;;3.30;99.90;;;;;;5078361;28;20111;-80
2022/11/27 01:21:49;;;;;;;23.58;17.48;;;3.30;99.90;;;;;;5085046;28;20577;-80
2022/11/27 01:24:16;;;;;;;22.52;16.30;;;3.40;99.90;;;;;;5069200;28;20052;-80
2022/11/27 01:26:42;;;;;;;25.17;16.95;;;3.40;99.90;;;;;;5078155;28;20032;-80
2022/11/27 01:29:08;;;;;;;23.90;16.55;;;3.30;99.90;;;;;;5089943;28;20085;-80
2022/11/27 01:31:36;;;;;;;22.83;16.67;;;3.20;99.90;;;;;;5090933;28;20052;-80
2022/11/27 01:34:05;;;;;;;22.88;15.98;;;3.20;99.90;;;;;;5091126;28;20017;-81
2022/11/27 01:36:32;;;;;;;20.50;15.63;;;3.20;99.90;;;;;;5091326;28;20028;-81
2022/11/27 01:38:58;;;;;;;21.50;15.77;;;3.20;99.90;;;;;;5089061;28;20047;-80
2022/11/27 01:41:29;;;;;;;17.63;14.02;;;3.20;99.90;;;;;;5090140;28;20035;-80
2022/11/27 01:44:24;;;;;;;22.13;15.70;;;3.10;99.90;;;;;;5091228;28;20054;-80
2022/11/27 01:47:16;;;;;;;18.88;13.90;;;3.20;99.90;;;;;;4992228;28;20037;-81
2022/11/27 01:49:52;;;;;;;18.20;14.43;;;3.20;99.90;;;;;;4988801;28;20034;-81
2022/11/27 01:52:31;;;;;;;20.83;14.70;;;3.20;99.90;;;;;;4972636;28;20030;-81
2022/11/27 01:55:05;;;;;;;20.27;14.35;;;3.10;99.90;;;;;;4998684;28;20030;-81
2022/11/27 01:57:42;;;;;;;20.90;14.77;;;3.10;99.90;;;;;;4989493;28;20498;-81
2022/11/27 02:00:12;;;;;;;18.05;13.50;;;3.20;99.90;;;;;;4993768;28;20030;-81
2022/11/27 02:02:39;;;;;;;19.92;13.65;;;3.00;99.90;;;;;;4972872;28;20034;-81
2022/11/27 02:05:05;;;;;;;19.38;14.00;;;3.00;99.90;;;;;;4987464;28;20121;-81
2022/11/27 02:07:31;;;;;;;20.70;14.35;;;3.10;99.90;;;;;;4972310;28;20046;-82
2022/11/27 02:09:56;;;;;;;21.02;14.77;;;2.90;99.90;;;;;;4988861;28;20029;-81
2022/11/27 02:12:27;;;;;;;21.38;14.15;;;2.80;99.90;;;;;;4988572;28;20500;-81
2022/11/27 02:15:15;;;;;;;22.00;14.80;;;2.70;99.90;;;;;;4988585;28;20508;-81
2022/11/27 02:18:04;;;;;;;24.35;14.77;;;2.80;99.90;;;;;;4988600;28;20041;-81
2022/11/27 02:20:58;;;;;;;25.63;15.13;;;2.80;99.90;;;;;;4988768;28;20054;-82
2022/11/27 02:23:39;;;;;;;23.70;15.10;;;2.70;99.90;;;;;;5003009;28;20506;-82
2022/11/27 02:26:26;;;;;;;23.73;14.43;;;2.80;99.90;;;;;;5072061;28;20236;-82
2022/11/27 02:29:07;;;;;;;22.20;14.38;;;2.90;99.90;;;;;;5090204;28;20028;-82
2022/11/27 02:31:36;;;;;;;22.75;14.30;;;2.80;99.90;;;;;;5090276;28;20016;-82
2022/11/27 02:34:14;;;;;;;18.42;12.63;;;2.90;99.90;;;;;;5090208;28;20023;-81
2022/11/27 02:36:48;;;;;;;17.60;12.32;;;2.70;99.90;;;;;;5090078;28;20024;-81
2022/11/27 02:39:19;;;;;;;17.98;12.68;;;2.90;99.90;;;;;;5090297;28;20019;-82
2022/11/27 02:42:05;;;;;;;18.60;11.93;;;2.90;99.90;;;;;;5088375;28;20035;-81
2022/11/27 02:44:36;;;;;;;14.63;11.20;;;2.80;99.90;;;;;;5090434;28;20022;-81
2022/11/27 02:47:03;;;;;;;16.60;11.27;;;2.90;99.90;;;;;;5075934;28;20059;-81
2022/11/27 02:49:30;;;;;;;17.30;11.63;;;2.90;99.90;;;;;;5090270;28;20023;-81
2022/11/27 02:51:57;;;;;;;14.93;10.88;;;2.80;99.90;;;;;;5089913;28;20028;-81
2022/11/27 02:54:27;;;;;;;17.20;12.02;;;2.80;99.90;;;;;;5089690;28;20021;-81
2022/11/27 02:56:57;;;;;;;13.88;10.48;;;2.80;99.90;;;;;;5073996;28;20032;-81
2022/11/27 02:59:25;;;;;;;13.77;10.63;;;2.80;99.90;;;;;;5069800;28;20028;-81
2022/11/27 03:01:55;;;;;;;14.00;10.68;;;2.80;99.90;;;;;;5071003;28;20028;-81
2022/11/27 03:04:33;;;;;;;12.98;10.60;;;2.80;99.90;;;;;;5073590;28;20032;-81
2022/11/27 03:07:04;;;;;;;11.95;9.55;;;2.60;99.90;;;;;;5073195;28;20028;-81
2022/11/27 03:09:42;;;;;;;13.23;9.88;;;2.40;99.90;;;;;;5072945;28;20024;-81
2022/11/27 03:12:10;;;;;;;11.93;9.13;;;2.50;99.90;;;;;;5071340;28;20502;-81
2022/11/27 03:14:38;;;;;;;11.43;9.00;;;2.60;99.90;;;;;;5072175;28;20017;-81
2022/11/27 03:17:40;;;;;;;11.32;8.85;;;2.50;99.90;;;;;;5073611;28;20033;-80
2022/11/27 03:20:18;;;;;;;12.98;9.30;;;2.60;99.90;;;;;;5067619;28;20029;-80
2022/11/27 03:22:44;;;;;;;10.45;8.07;;;2.70;99.90;;;;;;5071934;28;20077;-81
2022/11/27 03:25:10;;;;;;;12.00;8.20;;;2.60;99.90;;;;;;5071518;28;20052;-80
2022/11/27 03:27:42;;;;;;;13.07;9.25;;;2.50;99.90;;;;;;5086378;28;20072;-80
2022/11/27 03:30:09;;;;;;;11.25;9.02;;;2.40;99.90;;;;;;5093349;28;20095;-80
2022/11/27 03:32:35;;;;;;;13.02;9.65;;;2.60;99.90;;;;;;5092121;28;20028;-80
2022/11/27 03:35:02;;;;;;;13.07;8.73;;;2.60;99.90;;;;;;5092924;28;20016;-80
2022/11/27 03:37:28;;;;;;;11.93;8.18;;;2.60;99.90;;;;;;5093595;28;20028;-80
2022/11/27 03:39:54;;;;;;;10.82;8.43;;;2.60;99.90;;;;;;5093249;28;20241;-80
2022/11/27 03:42:25;;;;;;;13.10;10.40;;;2.60;99.90;;;;;;5092917;28;20020;-80
2022/11/27 03:45:06;;;;;;;12.45;9.45;;;2.70;99.90;;;;;;5093265;28;20016;-79
2022/11/27 03:48:06;;;;;;;12.82;8.82;;;2.70;99.90;;;;;;5092916;28;20036;-80
2022/11/27 03:50:45;;;;;;;12.63;9.15;;;2.50;99.90;;;;;;5090913;28;20078;-79
2022/11/27 03:53:23;;;;;;;11.48;8.30;;;2.20;99.90;;;;;;5093034;28;20031;-79
2022/11/27 03:56:04;;;;;;;11.80;8.20;;;2.50;99.90;;;;;;5086317;28;20020;-79
2022/11/27 03:58:54;;;;;;;;;;;2.40;99.90;;;;;;5076404;28;20028;-79
2022/11/27 04:01:23;;;;;;;13.70;8.48;;;2.40;99.90;;;;;;5093466;28;19955;-79
2022/11/27 04:03:49;;;;;;;10.82;8.75;;;2.50;99.90;;;;;;5073699;28;20021;-79
2022/11/27 04:06:15;;;;;;;11.02;8.32;;;2.50;99.90;;;;;;5082887;28;20154;-79
2022/11/27 04:08:41;;;;;;;10.43;7.72;;;2.50;99.90;;;;;;5079293;28;20016;-79
2022/11/27 04:11:07;;;;;;;9.75;7.78;;;2.50;99.90;;;;;;5080536;28;20379;-79
2022/11/27 04:13:33;;;;;;;9.98;7.68;;;2.40;99.90;;;;;;5083852;28;20031;-79
2022/11/27 04:16:00;;;;;;;11.40;8.32;;;2.40;99.90;;;;;;5084170;28;20401;-79
2022/11/27 04:18:26;;;;;;;9.90;7.68;;;2.40;99.90;;;;;;5079294;28;20024;-79
2022/11/27 04:20:52;;;;;;;10.18;8.30;;;2.40;99.90;;;;;;5079226;28;20509;-79
2022/11/27 04:23:17;;;;;;;8.90;7.18;;;2.40;99.90;;;;;;5084517;28;20387;-79
2022/11/27 04:25:43;;;;;;;9.07;7.10;;;2.30;99.90;;;;;;5082190;28;20063;-79
2022/11/27 04:28:09;;;;;;;9.98;7.28;;;2.20;99.90;;;;;;5091511;28;20401;-79
2022/11/27 04:30:35;;;;;;;7.80;7.00;;;2.30;99.90;;;;;;5092125;28;20296;-79
2022/11/27 04:33:00;;;;;;;10.57;8.05;;;2.40;99.90;;;;;;5092189;28;20042;-79
2022/11/27 04:35:26;;;;;;;9.23;7.13;;;2.40;99.90;;;;;;5090698;28;20020;-79
2022/11/27 04:37:52;;;;;;;8.00;6.55;;;2.40;99.90;;;;;;5091134;28;20550;-79
2022/11/27 04:40:18;;;;;;;9.05;7.68;;;2.40;99.90;;;;;;5090478;28;20028;-79
2022/11/27 04:42:43;;;;;;;9.23;7.07;;;2.30;99.90;;;;;;5091476;28;20028;-79
2022/11/27 04:45:09;;;;;;;8.30;6.85;;;2.30;99.90;;;;;;5091710;28;20085;-79
2022/11/27 04:47:35;;;;;;;9.27;6.88;;;2.30;99.90;;;;;;5091531;28;20529;-79
2022/11/27 04:50:01;;;;;;;8.80;7.13;;;2.30;99.90;;;;;;5091771;28;20032;-79
2022/11/27 04:52:26;;;;;;;9.00;7.40;;;2.00;99.90;;;;;;5091726;28;20085;-79
2022/11/27 04:54:52;;;;;;;8.82;7.40;;;2.00;99.90;;;;;;5091560;28;20099;-79
2022/11/27 04:57:18;;;;;;;8.48;7.50;;;2.10;99.90;;;;;;5076157;28;20448;-79
2022/11/27 04:59:43;;;;;;;9.77;7.65;;;2.20;99.90;;;;;;5091921;28;20409;-79
2022/11/27 05:02:09;;;;;;;9.45;8.02;;;2.30;99.90;;;;;;5090724;28;20020;-79
2022/11/27 05:04:35;;;;;;;12.18;9.38;;;2.20;99.90;;;;;;5090222;28;20028;-79
2022/11/27 05:07:00;;;;;;;11.57;9.18;;;2.20;99.90;;;;;;5091006;28;20020;-78
2022/11/27 05:09:26;;;;;;;10.25;7.85;;;2.30;99.90;;;;;;5091734;28;20039;-79
2022/11/27 05:11:52;;;;;;;11.95;7.75;;;2.30;99.90;;;;;;5091178;28;20025;-79
2022/11/27 05:14:18;;;;;;;10.52;8.23;;;2.40;99.90;;;;;;5091672;28;20021;-79
2022/11/27 05:16:48;;;;;;;10.38;7.88;;;2.40;99.90;;;;;;5091321;28;20362;-79
2022/11/27 05:19:15;;;;;;;9.48;7.95;;;2.50;99.90;;;;;;5091559;28;20030;-79
2022/11/27 05:21:42;;;;;;;10.48;7.63;;;2.50;99.90;;;;;;5085672;28;20075;-79
2022/11/27 05:24:08;;;;;;;11.05;7.38;;;2.50;99.90;;;;;;5070871;28;20032;-79
2022/11/27 05:26:34;;;;;;;9.18;7.50;;;2.50;99.90;;;;;;5077110;28;20028;-79
2022/11/27 05:29:00;;;;;;;10.38;7.68;;;2.50;99.90;;;;;;5078818;28;20507;-79
2022/11/27 05:31:26;;;;;;;10.02;7.07;;;2.60;99.90;;;;;;5086446;28;20488;-79
2022/11/27 05:33:52;;;;;;;9.77;7.13;;;2.60;99.90;;;;;;5069848;28;20048;-79
2022/11/27 05:36:18;;;;;;;9.80;7.57;;;2.50;99.90;;;;;;5070638;28;20394;-79
2022/11/27 05:38:43;;;;;;;8.27;6.63;;;2.60;99.90;;;;;;5071002;28;20025;-79
2022/11/27 05:41:09;;;;;;;9.82;7.57;;;2.70;99.90;;;;;;5084366;28;20514;-79
2022/11/27 05:43:35;;;;;;;9.77;6.50;;;2.60;99.90;;;;;;5083416;28;20437;-79
2022/11/27 05:46:09;;;;;;;8.30;6.80;;;2.50;99.90;;;;;;5075857;28;20449;-79
2022/11/27 05:48:35;;;;;;;8.10;6.90;;;2.40;99.90;;;;;;5090059;28;20024;-79
2022/11/27 05:51:02;;;;;;;10.02;7.35;;;2.20;99.90;;;;;;5077360;28;20028;-79
2022/11/27 05:53:28;;;;;;;9.00;7.30;;;2.30;99.90;;;;;;5077704;28;20031;-79
2022/11/27 05:55:59;;;;;;;9.73;7.55;;;2.40;99.90;;;;;;5089038;28;20058;-79
2022/11/27 05:58:24;;;;;;;9.85;7.70;;;2.60;99.90;;;;;;5077476;28;20111;-79
2022/11/27 06:00:51;;;;;;;8.10;6.43;;;2.60;99.90;;;;;;5083926;28;20474;-79
2022/11/27 06:03:16;;;;;;;8.85;6.93;;;2.60;99.90;;;;;;5083338;28;20035;-79
2022/11/27 06:05:42;;;;;;;8.23;7.13;;;2.50;99.90;;;;;;5077566;28;20099;-79
2022/11/27 06:08:08;;;;;;;9.38;6.72;;;2.40;99.90;;;;;;5077414;28;20032;-79
2022/11/27 06:10:33;;;;;;;8.82;7.38;;;2.60;99.90;;;;;;5083601;28;20401;-79
2022/11/27 06:12:59;;;;;;;8.68;6.97;;;2.60;99.90;;;;;;5082504;28;20573;-79
2022/11/27 06:15:25;;;;;;;9.38;7.05;;;2.60;99.90;;;;;;5077530;28;20490;-79
2022/11/27 06:17:50;;;;;;;11.57;7.22;;;2.50;99.90;;;;;;5077444;28;20498;-79
2022/11/27 06:20:18;;;;;;;8.38;6.40;;;2.60;99.90;;;;;;5090815;28;20058;-79
2022/11/27 06:22:44;;;;;;;9.45;6.80;;;2.50;99.90;;;;;;5075813;28;20063;-79
2022/11/27 06:28:42;;;;;;;;;;;2.60;99.90;;;;;;4649291;28;20136;-79
2022/11/27 06:31:14;;;;;;;9.60;6.75;;;2.50;99.90;;;;;;5089147;28;20371;-79
2022/11/27 06:33:40;;;;;;;8.55;6.45;;;2.50;99.90;;;;;;5090391;28;20024;-79
2022/11/27 06:36:06;;;;;;;8.55;7.10;;;2.40;99.90;;;;;;5088867;28;20020;-79
2022/11/27 06:38:33;;;;;;;9.15;6.95;;;2.50;99.90;;;;;;5094562;28;20416;-79
2022/11/27 06:41:07;;;;;;;8.55;6.45;;;2.50;99.90;;;;;;5075799;28;20094;-79
2022/11/27 06:43:34;;;;;;;7.75;6.38;;;2.60;99.90;;;;;;5073807;28;20051;-79
2022/11/27 06:46:01;;;;;;;8.35;6.20;;;2.50;99.90;;;;;;5072221;28;20020;-79
2022/11/27 06:48:27;;;;;;;8.52;5.90;;;2.50;99.90;;;;;;5084709;28;20027;-79
2022/11/27 06:50:52;;;;;;;8.02;6.20;;;2.50;99.90;;;;;;5092681;28;20130;-79
2022/11/27 06:53:18;;;;;;;9.60;7.05;;;2.60;99.90;;;;;;5093952;28;20074;-79
2022/11/27 06:55:44;;;;;;;9.15;6.50;;;2.60;99.90;;;;;;5087708;28;20016;-79
2022/11/27 06:58:10;;;;;;;8.05;6.70;;;2.60;99.90;;;;;;5073441;28;20474;-79
2022/11/27 07:00:36;;;;;;;9.23;6.45;;;2.60;99.90;;;;;;5074264;28;20025;-79
2022/11/27 07:03:02;;;;;;;8.98;7.07;;;2.70;99.90;;;;;;5071734;28;20026;-79
2022/11/27 07:05:28;;;;;;;10.07;7.18;;;2.80;99.90;;;;;;5077914;28;20508;-79
2022/11/27 07:07:55;;;;;;;11.32;8.30;;;2.80;99.90;;;;;;5080030;28;20028;-79
2022/11/27 07:10:21;;;;;;;12.85;8.65;;;2.80;99.90;;;;;;5071877;28;20593;-79
2022/11/27 07:12:46;;;;;;;10.77;8.27;;;2.90;99.90;;;;;;5071610;28;20112;-79
2022/11/27 07:15:12;;;;;;;11.88;8.60;;;3.00;99.90;;;;;;5073195;28;20398;-79
2022/11/27 07:17:38;;;;;;;10.35;8.18;;;3.00;99.90;;;;;;5073002;28;20047;-79
2022/11/27 07:20:04;;;;;;;12.13;8.75;;;3.00;99.90;;;;;;5073365;28;20127;-80
2022/11/27 07:22:31;;;;;;;9.50;7.95;;;3.00;99.90;;;;;;5071311;28;20083;-80
2022/11/27 07:24:57;;;;;;;12.13;9.05;;;3.00;99.90;;;;;;5071910;28;20063;-79
2022/11/27 07:27:23;;;;;;;11.60;8.88;;;3.00;99.90;;;;;;5084544;28;20060;-79
2022/11/27 07:29:49;;;;;;;11.10;7.43;;;3.10;99.90;;;;;;5085117;28;20569;-79
2022/11/27 07:32:14;;;;;;;11.20;8.50;;;3.20;99.90;;;;;;5080584;28;20097;-79
2022/11/27 07:34:40;;;;;;;11.60;8.55;;;3.30;99.90;;;;;;5092607;28;20505;-79
2022/11/27 07:37:06;;;;;;;11.35;8.57;;;3.40;99.90;;;;;;5082439;28;20510;-79
2022/11/27 07:39:31;;;;;;;10.50;8.30;;;3.40;99.90;;;;;;5085384;28;20486;-79
2022/11/27 07:41:57;;;;;;;11.73;8.98;;;3.50;99.90;;;;;;5071116;28;20028;-79
2022/11/27 07:44:22;;;;;;;11.02;7.57;;;3.70;99.90;;;;;;5071473;28;20082;-80
2022/11/27 07:46:48;;;;;;;13.20;9.38;;;3.70;99.90;;;;;;5072999;28;20025;-79
2022/11/27 07:49:14;;;;;;;12.20;8.68;;;3.80;99.90;;;;;;5072780;28;20402;-79
2022/11/27 07:51:39;;;;;;;11.25;8.02;;;3.80;99.90;;;;;;5077000;28;20028;-80
2022/11/27 07:54:05;;;;;;;10.60;7.88;;;3.70;99.90;;;;;;5082026;28;20016;-79
2022/11/27 07:56:31;;;;;;;11.40;7.82;;;3.80;99.90;;;;;;5083964;28;20016;-80
2022/11/27 07:58:57;;;;;;;11.30;8.27;;;3.90;99.90;;;;;;5086394;28;20537;-79
2022/11/27 08:01:23;;;;;;;11.88;8.15;;;3.90;99.90;;;;;;5078872;28;20401;-80
2022/11/27 08:03:49;;;;;;;11.77;8.70;;;4.00;99.90;;;;;;5078283;28;20024;-80
2022/11/27 08:06:26;;;;;;;11.55;8.48;;;4.10;99.90;;;;;;5081450;28;20550;-80
2022/11/27 08:08:55;;;;;;;11.40;8.63;;;4.20;99.90;;;;;;5076277;28;20095;-79
2022/11/27 08:11:28;;;;;;;13.13;9.00;;;4.30;99.90;;;;;;5080127;28;20035;-79
2022/11/27 08:13:56;;;;;;;13.48;8.85;;;4.40;99.90;;;;;;5082595;28;20077;-79
2022/11/27 08:16:22;;;;;;;13.80;8.70;;;4.40;99.90;;;;;;5079188;28;20025;-78
2022/11/27 08:18:48;;;;;;;12.80;7.80;;;4.50;99.90;;;;;;5078560;28;20080;-79
2022/11/27 08:21:13;;;;;;;13.90;7.80;;;4.40;99.90;;;;;;5079901;28;20028;-79
2022/11/27 08:23:39;;;;;;;10.95;8.15;;;4.60;99.90;;;;;;5080052;28;20385;-79
2022/11/27 08:26:06;;;;;;;10.90;7.75;;;4.60;99.90;;;;;;5074105;28;20548;-79
2022/11/27 08:28:32;;;;;;;12.52;7.97;;;4.70;99.90;;;;;;5079719;28;20048;-80
2022/11/27 08:30:59;;;;;;;11.80;8.20;;;4.70;99.90;;;;;;5079559;28;20013;-80
2022/11/27 08:33:25;;;;;;;9.75;6.60;;;4.90;99.90;;;;;;5083417;28;20099;-80
2022/11/27 08:35:51;;;;;;;10.02;6.70;;;5.00;99.90;;;;;;5081808;28;20021;-79
2022/11/27 08:38:17;;;;;;;11.13;6.80;;;5.10;99.90;;;;;;5082355;28;20030;-79
2022/11/27 08:40:43;;;;;;;9.15;6.70;;;5.10;99.90;;;;;;5080341;28;20029;-79
2022/11/27 08:43:08;;;;;;;7.55;6.07;;;5.10;99.90;;;;;;5082158;28;20383;-79
2022/11/27 08:45:37;;;;;;;10.20;6.80;;;5.10;99.90;;;;;;5078847;28;20563;-79
2022/11/27 08:48:02;;;;;;;8.98;6.68;;;5.30;99.90;;;;;;5077478;28;20398;-78
2022/11/27 08:50:28;;;;;;;8.18;5.88;;;5.40;99.90;;;;;;5072644;28;20024;-79
2022/11/27 08:52:54;;;;;;;8.93;6.05;;;5.50;99.90;;;;;;5071602;28;20107;-79
2022/11/27 08:55:19;;;;;;;9.25;6.10;;;5.60;99.90;;;;;;5083023;28;20062;-78
2022/11/27 08:57:45;;;;;;;9.00;6.07;;;5.90;99.90;;;;;;5075858;28;20035;-79
2022/11/27 09:00:11;;;;;;;7.45;5.30;;;6.60;99.90;;;;;;5080915;28;20025;-79
2022/11/27 09:02:37;;;;;;;8.10;5.10;;;6.90;99.90;;;;;;5076749;28;20028;-79
2022/11/27 09:05:06;;;;;;;7.68;5.22;;;7.10;99.90;;;;;;5078469;28;20520;-79
2022/11/27 09:07:32;;;;;;;7.05;5.13;;;7.60;99.90;;;;;;5084270;28;20032;-79
2022/11/27 09:09:57;;;;;;;5.68;4.35;;;8.70;99.90;;;;;;5079219;28;20016;-79
2022/11/27 09:12:23;;;;;;;7.18;4.30;;;8.20;99.90;;;;;;5078892;28;20516;-79
2022/11/27 09:14:49;;;;;;;4.70;3.78;;;7.80;99.90;;;;;;5078413;28;20028;-79
2022/11/27 09:17:16;;;;;;;6.15;4.05;;;7.50;99.90;;;;;;5078164;28;20024;-79
2022/11/27 09:19:41;;;;;;;4.43;3.60;;;7.50;99.90;;;;;;5080738;28;20013;-79
2022/11/27 09:22:07;;;;;;;5.32;3.88;;;7.50;99.90;;;;;;5082408;28;20035;-80
2022/11/27 09:24:32;;;;;;;5.88;4.85;;;7.40;99.90;;;;;;5082573;28;20601;-80
2022/11/27 09:26:58;;;;;;;5.72;3.75;;;7.50;99.90;;;;;;5080547;28;20578;-80
2022/11/27 09:29:24;;;;;;;4.63;4.03;;;7.60;99.90;;;;;;5077704;28;20421;-80
2022/11/27 09:31:50;;;;;;;6.47;3.80;;;7.60;99.90;;;;;;5080613;28;20171;-80
2022/11/27 09:34:16;;;;;;;3.92;2.80;;;7.60;99.90;;;;;;5079464;28;20021;-80
2022/11/27 09:36:42;;;;;;;4.57;3.33;;;7.70;99.90;;;;;;5083075;28;20024;-81
2022/11/27 09:39:08;;;;;;;4.50;3.25;;;7.80;99.90;;;;;;5075789;28;20555;-80
2022/11/27 09:41:38;;;;;;;5.85;3.38;;;7.90;99.90;;;;;;5070131;28;20521;-81
2022/11/27 09:44:15;;;;;;;4.10;3.03;;;8.00;99.90;;;;;;5068846;28;20021;-82
2022/11/27 09:46:42;;;;;;;5.05;3.40;;;8.10;99.90;;;;;;5074442;28;20025;-82
2022/11/27 09:49:16;;;;;;;4.43;2.83;;;8.20;99.90;;;;;;5077928;28;20012;-81
2022/11/27 09:51:52;;;;;;;5.40;3.53;;;8.30;99.90;;;;;;5073324;28;20060;-82
2022/11/27 09:54:27;;;;;;;5.07;3.08;;;8.50;99.90;;;;;;5075169;28;20331;-82
2022/11/27 09:56:55;;;;;;;5.97;3.15;;;8.50;99.90;;;;;;5082487;28;20031;-80
2022/11/27 09:59:24;;;;;;;4.07;2.92;;;8.50;99.90;;;;;;5081509;28;20036;-82
2022/11/27 10:01:52;;;;;;;4.95;3.03;;;8.60;99.90;;;;;;5074830;28;20116;-82
2022/11/27 10:04:19;;;;;;;3.35;2.45;;;8.70;99.90;;;;;;5075973;28;20071;-81
2022/11/27 10:07:03;;;;;;;4.45;3.22;;;8.70;99.90;;;;;;5076729;28;20046;-82
2022/11/27 10:09:35;;;;;;;4.07;2.75;;;8.90;99.90;;;;;;5079209;28;20017;-82
2022/11/27 10:12:01;;;;;;;4.50;2.90;;;9.00;99.90;;;;;;5080763;28;20020;-82
2022/11/27 10:15:00;;;;;;;4.97;2.40;;;9.10;99.90;;;;;;5081633;28;20536;-82
2022/11/27 10:17:32;;;;;;;6.03;2.95;;;9.20;99.90;;;;;;5084653;28;20085;-82
2022/11/27 10:20:11;;;;;;;5.72;2.95;;;9.30;99.90;;;;;;5080520;28;20052;-82
2022/11/27 10:23:03;;;;;;;3.00;2.35;;;9.40;99.90;;;;;;5078924;28;20031;-82
2022/11/27 10:25:51;;;;;;;3.97;2.60;;;9.30;99.90;;;;;;5079699;28;20031;-82
2022/11/27 10:28:28;;;;;;;5.95;2.95;;;9.40;99.90;;;;;;5078963;28;20129;-82
2022/11/27 10:31:16;;;;;;;6.55;3.50;;;9.40;99.90;;;;;;5083478;28;20056;-82
2022/11/27 10:33:46;;;;;;;6.13;3.33;;;9.40;99.90;;;;;;5081367;28;20012;-82
2022/11/27 10:36:20;;;;;;;5.82;3.40;;;9.40;99.90;;;;;;5082873;28;20110;-82
2022/11/27 10:38:47;;;;;;;5.13;3.25;;;9.50;99.90;;;;;;5084530;28;20020;-82
2022/11/27 10:41:19;;;;;;;5.97;3.72;;;9.60;99.90;;;;;;5084634;28;20091;-82
2022/11/27 10:43:49;;;;;;;5.60;3.28;;;9.60;99.90;;;;;;5085045;28;20043;-82
2022/11/27 10:46:23;;;;;;;5.40;3.50;;;9.70;99.90;;;;;;5086365;28;20115;-82
2022/11/27 10:48:48;;;;;;;7.00;3.65;;;9.70;99.90;;;;;;5082103;28;20020;-82
2022/11/27 10:51:31;;;;;;;4.75;2.97;;;9.60;99.90;;;;;;5075162;28;20031;-82
2022/11/27 10:53:59;;;;;;;3.78;3.05;;;9.80;99.90;;;;;;5077216;28;20044;-82
2022/11/27 10:56:31;;;;;;;5.07;3.40;;;9.90;99.90;;;;;;5078759;28;20033;-81
2022/11/27 10:59:00;;;;;;;;;;;10.00;99.90;;;;;;5080854;28;20099;-82
2022/11/27 11:01:39;;;;;;;9.00;3.33;;;10.10;99.90;;;;;;5081803;28;19908;-82
2022/11/27 11:04:09;;;;;;;2.97;2.70;;;10.20;99.90;;;;;;5085062;28;20031;-82
2022/11/27 11:06:44;;;;;;;3.53;2.80;;;10.20;99.90;;;;;;5083402;28;20024;-82
2022/11/27 11:09:31;;;;;;;6.10;3.13;;;10.30;99.90;;;;;;5083856;28;20254;-82
2022/11/27 11:12:18;;;;;;;4.97;2.97;;;10.40;99.90;;;;;;5083625;28;20028;-82
2022/11/27 11:14:55;;;;;;;4.57;2.78;;;10.40;99.90;;;;;;5083847;28;20051;-82
2022/11/27 11:17:33;;;;;;;3.45;2.45;;;10.40;99.90;;;;;;5083629;28;20041;-82
2022/11/27 11:19:59;;;;;;;4.25;2.97;;;10.40;99.90;;;;;;5073142;28;20021;-82
2022/11/27 11:22:27;;;;;;;5.68;3.15;;;10.40;99.90;;;;;;5073528;28;20028;-82
2022/11/27 11:24:52;;;;;;;8.15;3.97;;;10.40;99.90;;;;;;5076932;28;20019;-82
2022/11/27 11:27:27;;;;;;;4.05;2.92;;;10.60;99.90;;;;;;5093046;28;20558;-82
2022/11/27 11:30:00;;;;;;;3.50;2.72;;;10.50;99.90;;;;;;5081868;28;20521;-83
2022/11/27 11:32:32;;;;;;;5.00;2.40;;;10.60;99.90;;;;;;5071517;28;20567;-82
2022/11/27 11:35:09;;;;;;;4.32;2.20;;;10.70;99.90;;;;;;5078137;28;20020;-82
2022/11/27 11:37:38;;;;;;;5.88;2.70;;;10.60;99.90;;;;;;5079555;28;20058;-82
2022/11/27 11:40:12;;;;;;;2.83;2.47;;;10.60;99.90;;;;;;5073230;28;20520;-83
2022/11/27 11:42:49;;;;;;;5.80;3.15;;;10.60;99.90;;;;;;5072653;28;20082;-83
2022/11/27 11:45:21;;;;;;;5.03;3.10;;;10.60;99.90;;;;;;5075909;28;20115;-82
2022/11/27 11:47:49;;;;;;;4.00;2.65;;;10.70;99.90;;;;;;5084218;28;20038;-82
2022/11/27 11:50:41;;;;;;;4.57;2.83;;;10.80;99.90;;;;;;5079236;28;20021;-82
2022/11/27 11:53:36;;;;;;;4.43;2.90;;;10.70;99.90;;;;;;5084129;28;20109;-83
2022/11/27 11:56:17;;;;;;;6.00;3.10;;;10.80;99.90;;;;;;5078531;28;20024;-82
2022/11/27 11:58:51;;;;;;;3.85;2.83;;;10.80;99.90;;;;;;5071233;28;20490;-83
2022/11/27 12:01:35;;;;;;;8.00;3.58;;;10.80;99.90;;;;;;5077586;28;20078;-82
2022/11/27 12:04:35;;;;;;;4.10;2.75;;;10.90;99.90;;;;;;5078287;28;20067;-82
2022/11/27 12:07:17;;;;;;;5.18;3.40;;;10.90;99.90;;;;;;5093024;28;20028;-82
2022/11/27 12:10:00;;;;;;;3.75;3.13;;;10.90;99.90;;;;;;5087353;28;20025;-82
2022/11/27 12:12:58;;;;;;;5.90;2.95;;;10.90;99.90;;;;;;5074087;28;20024;-82
2022/11/27 12:15:36;;;;;;;7.22;3.42;;;10.90;99.90;;;;;;5080237;28;20485;-81
2022/11/27 12:18:11;;;;;;;4.63;2.90;;;10.90;99.90;;;;;;5080343;28;20107;-81
2022/11/27 12:21:12;;;;;;;5.78;3.30;;;10.80;99.90;;;;;;5081153;28;20028;-81
2022/11/27 12:23:56;;;;;;;6.05;3.13;;;11.00;99.90;;;;;;5083264;28;20020;-82
2022/11/27 12:26:33;;;;;;;7.05;3.08;;;10.90;99.90;;;;;;5075629;28;20033;-81
2022/11/27 12:29:20;;;;;;;5.10;3.22;;;11.00;99.90;;;;;;5082665;28;20120;-81
2022/11/27 12:32:23;;;;;;;5.88;3.65;;;11.00;99.90;;;;;;5081023;28;20111;-81
2022/11/27 12:35:06;;;;;;;4.72;3.10;;;11.20;99.90;;;;;;5078415;28;20022;-81
2022/11/27 12:37:41;;;;;;;5.68;2.90;;;11.20;99.90;;;;;;5076306;28;20101;-81
2022/11/27 12:40:24;;;;;;;4.72;3.17;;;11.20;99.90;;;;;;5085155;28;20023;-81
2022/11/27 12:43:27;;;;;;;4.20;2.90;;;11.30;99.90;;;;;;5091637;28;20112;-81
2022/11/27 12:46:08;;;;;;;5.20;3.20;;;11.40;99.90;;;;;;5055333;28;20041;-82
2022/11/27 12:49:03;;;;;;;5.03;2.65;;;11.40;99.90;;;;;;5084381;28;20036;-82
2022/11/27 12:51:36;;;;;;;3.22;2.65;;;11.40;99.90;;;;;;5082370;28;20036;-82
2022/11/27 12:54:10;;;;;;;6.13;3.20;;;11.30;99.90;;;;;;5090397;28;20076;-82
2022/11/27 12:56:51;;;;;;;4.45;2.85;;;11.30;99.90;;;;;;5087651;28;20019;-82
2022/11/27 12:59:30;;;;;;;4.07;2.65;;;11.30;99.90;;;;;;5070870;28;20032;-81
2022/11/27 13:02:09;;;;;;;4.20;2.92;;;11.20;99.90;;;;;;5071413;28;20017;-82
2022/11/27 13:04:55;;;;;;;3.35;2.90;;;11.20;99.90;;;;;;5071547;28;20027;-81
2022/11/27 13:07:23;;;;;;;7.90;3.13;;;11.10;99.90;;;;;;5078145;28;20315;-81
2022/11/27 13:10:07;;;;;;;6.00;3.00;;;11.10;99.90;;;;;;5090251;28;20091;-81